Time;durP1;ratioP1;P1;durP2;ratioP2;P2;SDS_P1;SDS_P2;PMS_P1;PMS_P2;Temp;Humidity;BMP_temperature;BMP_pressure;BME280_temperature;BME280_humidity;BME280_pressure;Samples;Min_cycle;Max_cycle;Signal;HPM_P1;HPM_P2
2022/09/04 00:01:54;;;;;;;2.20;2.10;;;;;;;15.58;100.00;95965.78;5025308;28;20036;-60
2022/09/04 00:04:34;;;;;;;2.70;2.08;;;;;;;15.61;100.00;95968.13;5022650;28;20037;-60
2022/09/04 00:07:12;;;;;;;5.75;1.77;;;;;;;15.55;100.00;95976.72;5023298;28;20044;-61
2022/09/04 00:10:02;;;;;;;2.38;1.90;;;;;;;15.52;100.00;95969.09;5023852;28;20021;-60
2022/09/04 00:12:36;;;;;;;2.47;1.88;;;;;;;15.52;100.00;95980.56;5017224;28;20033;-60
2022/09/04 00:15:25;;;;;;;3.17;1.73;;;;;;;15.51;100.00;95972.75;5022974;28;20393;-61
2022/09/04 00:18:01;;;;;;;6.38;2.03;;;;;;;15.46;100.00;95968.78;5017820;28;20489;-60
2022/09/04 00:20:41;;;;;;;3.55;2.05;;;;;;;15.40;100.00;95965.94;5018636;28;20121;-60
2022/09/04 00:23:19;;;;;;;2.00;1.90;;;;;;;15.42;100.00;95961.31;5023087;28;20030;-60
2022/09/04 00:25:51;;;;;;;2.55;1.90;;;;;;;15.41;100.00;95962.28;5024021;28;20591;-60
2022/09/04 00:28:31;;;;;;;2.30;2.10;;;;;;;15.45;100.00;95964.47;5019272;28;20034;-60
2022/09/04 00:31:05;;;;;;;4.28;1.98;;;;;;;15.43;100.00;95966.47;5026847;28;20037;-60
2022/09/04 00:33:47;;;;;;;4.75;2.10;;;;;;;15.41;100.00;95962.28;5026924;28;20493;-59
2022/09/04 00:36:16;;;;;;;1.98;1.88;;;;;;;15.45;100.00;95963.63;5010980;28;20033;-60
2022/09/04 00:38:48;;;;;;;4.32;2.05;;;;;;;15.42;100.00;95959.50;5010643;28;20030;-60
2022/09/04 00:41:32;;;;;;;2.45;1.80;;;;;;;15.45;100.00;95969.78;5010497;28;20032;-60
2022/09/04 00:44:19;;;;;;;3.25;1.73;;;;;;;15.46;100.00;95965.28;5010888;28;20061;-60
2022/09/04 00:46:50;;;;;;;2.90;1.80;;;;;;;15.35;100.00;95958.47;5010500;28;20050;-60
2022/09/04 00:49:22;;;;;;;3.83;2.00;;;;;;;15.23;100.00;95970.41;5010589;28;20026;-60
2022/09/04 00:52:15;;;;;;;2.70;2.00;;;;;;;15.21;100.00;95961.81;5010679;28;20033;-60
2022/09/04 00:55:07;;;;;;;4.72;1.70;;;;;;;15.21;100.00;95972.41;5010446;28;20026;-60
2022/09/04 00:57:57;;;;;;;2.63;1.92;;;;;;;15.20;100.00;95963.63;5010349;28;20563;-60
2022/09/04 01:00:25;;;;;;;6.15;1.77;;;;;;;15.20;100.00;95953.00;5010514;28;20049;-60
2022/09/04 01:03:06;;;;;;;2.15;2.00;;;;;;;15.13;100.00;95950.19;5010389;28;20026;-60
2022/09/04 01:05:37;;;;;;;2.17;2.05;;;;;;;15.18;100.00;95958.50;5010160;28;20021;-60
2022/09/04 01:08:24;;;;;;;5.53;2.28;;;;;;;15.09;100.00;95950.69;5010250;28;20440;-60
2022/09/04 01:11:17;;;;;;;2.05;1.90;;;;;;;15.05;100.00;95947.53;5010314;28;20109;-60
2022/09/04 01:14:12;;;;;;;3.90;2.08;;;;;;;15.27;100.00;95950.53;5010483;28;20025;-60
2022/09/04 01:16:45;;;;;;;2.50;1.90;;;;;;;15.18;100.00;95947.88;5010408;28;20080;-60
2022/09/04 01:19:28;;;;;;;5.32;2.15;;;;;;;15.13;100.00;95939.56;5010647;28;20057;-61
2022/09/04 01:22:15;;;;;;;2.10;1.80;;;;;;;15.12;100.00;95943.22;5010061;28;20800;-60
2022/09/04 01:24:46;;;;;;;5.00;1.90;;;;;;;15.07;100.00;95939.41;5010103;28;20030;-61
2022/09/04 01:27:25;;;;;;;2.97;2.00;;;;;;;15.04;100.00;95930.81;5010260;28;20026;-60
2022/09/04 01:29:53;;;;;;;1.85;1.73;;;;;;;14.96;100.00;95929.97;5015423;28;20032;-60
2022/09/04 01:32:42;;;;;;;2.70;2.03;;;;;;;14.94;100.00;95934.59;5009770;28;20726;-61
2022/09/04 01:35:30;;;;;;;4.78;1.90;;;;;;;14.90;100.00;95931.44;5010098;28;20100;-60
2022/09/04 01:38:02;;;;;;;2.05;1.95;;;;;;;14.84;100.00;95932.91;5009938;28;20497;-61
2022/09/04 01:40:34;;;;;;;2.25;1.90;;;;;;;14.78;100.00;95928.25;5009783;28;20030;-60
2022/09/04 01:43:13;;;;;;;2.28;1.85;;;;;;;14.66;100.00;95937.47;5013079;28;20028;-60
2022/09/04 01:45:41;;;;;;;7.22;1.92;;;;;;;14.65;100.00;95935.81;5019201;28;20053;-60
2022/09/04 01:48:13;;;;;;;8.35;1.80;;;;;;;14.65;100.00;95944.59;5029060;28;20420;-60
2022/09/04 01:50:42;;;;;;;2.00;1.90;;;;;;;14.69;100.00;95937.13;5030795;28;20481;-61
2022/09/04 01:53:13;;;;;;;3.28;1.95;;;;;;;14.63;100.00;95936.00;5016061;28;20034;-60
2022/09/04 01:55:50;;;;;;;1.92;1.83;;;;;;;14.56;100.00;95934.94;5028502;28;20034;-61
2022/09/04 01:58:21;;;;;;;7.00;2.08;;;;;;;14.55;100.00;95928.84;5029200;28;20029;-60
2022/09/04 02:01:28;;;;;;;4.50;2.17;;;;;;;14.57;100.00;95937.44;5016456;28;20366;-60
2022/09/04 02:04:19;;;;;;;2.05;1.95;;;;;;;14.78;100.00;95938.88;5014459;28;20037;-60
2022/09/04 02:07:16;;;;;;;2.30;1.83;;;;;;;14.66;100.00;95943.59;5011176;28;20049;-60
2022/09/04 02:10:00;;;;;;;11.65;2.17;;;;;;;14.56;100.00;95950.84;5016647;28;20034;-60
2022/09/04 02:12:46;;;;;;;2.42;1.80;;;;;;;14.53;100.00;95953.81;5016046;28;20404;-60
2022/09/04 02:15:21;;;;;;;1.92;1.75;;;;;;;14.54;100.00;95953.69;5016169;28;20037;-61
2022/09/04 02:17:57;;;;;;;4.18;2.13;;;;;;;14.47;100.00;95950.84;5016529;28;20392;-60
2022/09/04 02:20:28;;;;;;;3.38;2.00;;;;;;;14.44;100.00;95952.97;5033644;28;20168;-61
2022/09/04 02:23:34;;;;;;;5.00;1.90;;;;;;;14.39;100.00;95949.97;5016810;28;20021;-60
2022/09/04 02:26:19;;;;;;;4.72;2.15;;;;;;;14.31;100.00;95956.91;5015228;28;20045;-61
2022/09/04 02:29:05;;;;;;;2.22;2.10;;;;;;;14.27;100.00;95952.91;5016245;28;20025;-60
2022/09/04 02:31:48;;;;;;;5.55;2.25;;;;;;;14.23;100.00;95958.69;5016066;28;20026;-60
2022/09/04 02:34:30;;;;;;;3.67;2.10;;;;;;;14.18;100.00;95961.78;5015894;28;20034;-61
2022/09/04 02:37:15;;;;;;;2.22;2.13;;;;;;;14.19;100.00;95963.44;5015928;28;20823;-60
2022/09/04 02:40:08;;;;;;;8.68;2.10;;;;;;;14.14;100.00;95965.75;5015837;28;20062;-61
2022/09/04 02:42:39;;;;;;;3.22;2.17;;;;;;;14.06;100.00;95963.88;5016140;28;20405;-61
2022/09/04 02:45:20;;;;;;;3.17;1.88;;;;;;;14.09;100.00;95962.75;5015936;28;20778;-60
2022/09/04 02:48:23;;;;;;;2.45;1.98;;;;;;;14.06;100.00;95971.81;5015533;28;20488;-60
2022/09/04 02:51:16;;;;;;;5.80;2.00;;;;;;;13.98;100.00;95972.59;5015789;28;20623;-60
2022/09/04 02:53:56;;;;;;;2.13;2.03;;;;;;;13.91;100.00;95979.50;5019234;28;20052;-60
2022/09/04 02:56:45;;;;;;;2.58;1.98;;;;;;;13.94;100.00;95975.72;5032738;28;20026;-61
2022/09/04 02:59:35;;;;;;;1.90;1.80;;;;;;;13.97;100.00;95972.78;5015338;28;20088;-60
2022/09/04 03:02:03;;;;;;;1.95;1.75;;;;;;;13.97;100.00;95965.66;5012558;28;20104;-60
2022/09/04 03:04:30;;;;;;;1.90;1.80;;;;;;;13.97;100.00;95975.41;5012586;28;20135;-60
2022/09/04 03:07:04;;;;;;;1.90;1.80;;;;;;;13.98;100.00;95980.53;5019654;28;20735;-60
2022/09/04 03:09:50;;;;;;;3.17;1.80;;;;;;;13.98;100.00;95967.31;5016586;28;20026;-60
2022/09/04 03:12:27;;;;;;;2.70;1.85;;;;;;;13.93;100.00;95971.44;5012405;28;20026;-61
2022/09/04 03:15:13;;;;;;;6.35;1.92;;;;;;;13.89;100.00;95970.91;5012099;28;20044;-61
2022/09/04 03:17:52;;;;;;;3.53;2.40;;;;;;;13.85;100.00;95965.06;5013033;28;20026;-60
2022/09/04 03:20:22;;;;;;;2.00;1.90;;;;;;;13.84;100.00;95965.25;5012737;28;20022;-60
2022/09/04 03:23:03;;;;;;;2.35;2.25;;;;;;;13.79;100.00;95963.06;5012066;28;20018;-61
2022/09/04 03:25:43;;;;;;;2.22;2.13;;;;;;;13.79;100.00;95960.41;5012222;28;20180;-60
2022/09/04 03:28:22;;;;;;;6.30;2.30;;;;;;;13.80;100.00;95963.88;5012284;28;20034;-60
2022/09/04 03:30:49;;;;;;;2.50;2.30;;;;;;;13.80;100.00;95963.88;5011810;28;20030;-60
2022/09/04 03:33:33;;;;;;;3.13;2.28;;;;;;;13.81;100.00;95960.25;5012287;28;20033;-61
2022/09/04 03:36:13;;;;;;;5.22;2.30;;;;;;;13.75;100.00;95964.38;4994509;28;20064;-61
2022/09/04 03:38:51;;;;;;;2.40;2.20;;;;;;;13.73;100.00;95963.69;5013860;28;20030;-61
2022/09/04 03:41:34;;;;;;;2.10;2.00;;;;;;;13.68;100.00;95963.31;5015887;28;20405;-60
2022/09/04 03:44:45;;;;;;;2.72;2.00;;;;;;;13.72;100.00;95960.19;5012064;28;20485;-61
2022/09/04 03:47:37;;;;;;;1.98;1.88;;;;;;;13.74;100.00;95966.16;5022680;28;20045;-60
2022/09/04 03:50:14;;;;;;;2.47;2.13;;;;;;;13.70;100.00;95963.97;5012012;28;20038;-60
2022/09/04 03:52:58;;;;;;;2.13;2.03;;;;;;;13.69;100.00;95963.16;5011804;28;20033;-60
2022/09/04 03:55:39;;;;;;;3.67;2.53;;;;;;;13.68;100.00;95961.50;5024191;28;20033;-61
2022/09/04 03:58:31;;;;;;;6.05;2.10;;;;;;;13.67;100.00;95957.19;5011138;28;20041;-60
2022/09/04 04:01:28;;;;;;;4.38;2.10;;;;;;;13.66;100.00;95962.63;4981028;28;20037;-60
2022/09/04 04:04:19;;;;;;;2.17;1.90;;;;;;;13.68;100.00;95968.59;5006195;28;20116;-60
2022/09/04 04:07:08;;;;;;;7.07;1.98;;;;;;;13.66;100.00;95968.75;5011346;28;20029;-60
2022/09/04 04:10:02;;;;;;;2.15;2.00;;;;;;;13.65;100.00;95972.41;5011524;28;20030;-61
2022/09/04 04:12:38;;;;;;;2.63;2.08;;;;;;;13.58;100.00;95968.69;5010049;28;20393;-61
2022/09/04 04:15:20;;;;;;;6.22;1.92;;;;;;;13.61;100.00;95978.97;5011506;28;20060;-61
2022/09/04 04:18:19;;;;;;;2.25;2.05;;;;;;;13.59;100.00;95979.13;5012237;28;20021;-60
2022/09/04 04:21:13;;;;;;;5.00;2.35;;;;;;;13.63;100.00;95973.53;5011174;28;20481;-60
2022/09/04 04:24:13;;;;;;;3.90;2.17;;;;;;;13.56;100.00;95973.31;5011225;28;20109;-60
2022/09/04 04:26:51;;;;;;;2.53;2.28;;;;;;;13.50;100.00;95984.50;5011166;28;20018;-61
2022/09/04 04:29:39;;;;;;;2.95;2.40;;;;;;;13.44;100.00;95985.94;5010927;28;20022;-60
2022/09/04 04:32:19;;;;;;;2.20;2.10;;;;;;;13.43;100.00;95989.56;5010864;28;20044;-60
2022/09/04 04:35:03;;;;;;;2.40;2.30;;;;;;;13.44;100.00;95991.22;5011201;28;20026;-60
2022/09/04 04:37:29;;;;;;;2.22;2.13;;;;;;;13.38;100.00;95990.00;5010914;28;20500;-60
2022/09/04 04:40:19;;;;;;;2.78;2.67;;;;;;;13.38;100.00;95990.00;5010979;28;20014;-60
2022/09/04 04:43:16;;;;;;;3.63;2.25;;;;;;;13.38;100.00;95992.66;5010435;28;20032;-60
2022/09/04 04:45:59;;;;;;;3.35;2.88;;;;;;;13.38;100.00;95997.94;5010920;28;20437;-61
2022/09/04 04:48:46;;;;;;;3.30;3.00;;;;;;;13.36;100.00;95994.59;5010827;28;20054;-61
2022/09/04 04:51:30;;;;;;;3.40;2.70;;;;;;;13.33;100.00;96001.03;5010446;28;20033;-61
2022/09/04 04:54:16;;;;;;;4.40;2.60;;;;;;;13.25;100.00;96006.22;5016511;28;20041;-60
2022/09/04 04:56:52;;;;;;;8.82;2.60;;;;;;;13.22;100.00;96006.53;5014033;28;20101;-61
2022/09/04 04:59:22;;;;;;;4.10;2.47;;;;;;;13.22;100.00;96000.44;5010571;28;20084;-60
2022/09/04 05:02:17;;;;;;;4.35;2.38;;;;;;;13.18;100.00;96003.38;5010391;28;20095;-61
2022/09/04 05:05:04;;;;;;;2.85;2.20;;;;;;;13.12;100.00;95998.69;5010323;28;20029;-61
2022/09/04 05:07:53;;;;;;;3.92;2.40;;;;;;;13.12;100.00;96001.31;5021710;28;20029;-60
2022/09/04 05:10:40;;;;;;;2.13;1.92;;;;;;;13.12;100.00;95997.88;5010523;28;20030;-61
2022/09/04 05:13:33;;;;;;;4.25;2.05;;;;;;;13.16;100.00;95993.94;5010131;28;20540;-61
2022/09/04 05:16:05;;;;;;;2.35;2.13;;;;;;;13.23;100.00;96002.09;5010366;28;20029;-60
2022/09/04 05:18:47;;;;;;;2.33;2.00;;;;;;;13.27;100.00;95998.16;5010739;28;20034;-60
2022/09/04 05:21:28;;;;;;;3.25;2.17;;;;;;;13.28;100.00;95998.03;5014973;28;20021;-61
2022/09/04 05:24:23;;;;;;;2.45;2.15;;;;;;;13.24;100.00;96003.75;5012932;28;20083;-60
2022/09/04 05:27:15;;;;;;;2.40;2.30;;;;;;;13.17;100.00;96009.66;5010022;28;20018;-61
2022/09/04 05:30:04;;;;;;;2.42;2.20;;;;;;;13.22;100.00;96019.75;5007965;28;20030;-61
2022/09/04 05:32:51;;;;;;;2.55;2.15;;;;;;;13.26;100.00;96012.38;5010071;28;20105;-60
2022/09/04 05:35:37;;;;;;;4.53;2.75;;;;;;;13.24;100.00;96019.63;5009744;28;20033;-61
2022/09/04 05:38:21;;;;;;;6.90;3.20;;;;;;;13.24;100.00;96019.63;5010155;28;20042;-61
2022/09/04 05:41:10;;;;;;;3.50;2.25;;;;;;;13.21;100.00;96018.09;5009965;28;20045;-61
2022/09/04 05:44:13;;;;;;;4.40;2.38;;;;;;;13.23;100.00;96020.59;5010142;28;20040;-61
2022/09/04 05:46:42;;;;;;;3.28;2.20;;;;;;;13.25;100.00;96030.03;5009841;28;20029;-59
2022/09/04 05:49:23;;;;;;;2.45;2.35;;;;;;;13.25;100.00;96029.22;5009993;28;20489;-59
2022/09/04 05:51:48;;;;;;;4.45;2.65;;;;;;;13.29;100.00;96041.13;5009829;28;20029;-59
2022/09/04 05:54:32;;;;;;;2.70;2.30;;;;;;;13.26;100.00;96042.28;5018088;28;20025;-60
2022/09/04 05:57:13;;;;;;;2.63;2.40;;;;;;;13.30;100.00;96040.16;5011147;28;20551;-59
2022/09/04 05:59:44;;;;;;;3.17;2.58;;;;;;;13.37;100.00;96040.41;5005088;28;20508;-59
2022/09/04 06:02:30;;;;;;;7.45;2.47;;;;;;;13.40;100.00;96045.38;5009710;28;20036;-62
2022/09/04 06:05:33;;;;;;;8.05;2.72;;;;;;;13.44;100.00;96044.13;5009473;28;20033;-61
2022/09/04 06:07:58;;;;;;;6.38;2.45;;;;;;;13.42;100.00;96048.69;5022388;28;20511;-61
2022/09/04 06:10:41;;;;;;;2.47;2.22;;;;;;;13.44;100.00;96055.53;5009865;28;20030;-62
2022/09/04 06:13:22;;;;;;;2.97;2.30;;;;;;;13.45;100.00;96059.00;5010109;28;20026;-62
2022/09/04 06:16:25;;;;;;;2.65;2.25;;;;;;;13.44;100.00;96060.84;5009776;28;20091;-61
2022/09/04 06:18:50;;;;;;;2.38;2.10;;;;;;;13.44;100.00;96060.00;5009612;28;20026;-61
2022/09/04 06:21:43;;;;;;;3.90;2.55;;;;;;;13.44;100.00;96060.00;5009249;28;20022;-61
2022/09/04 06:24:15;;;;;;;2.88;2.40;;;;;;;13.44;100.00;96063.47;5009302;28;20113;-61
2022/09/04 06:26:59;;;;;;;4.18;2.72;;;;;;;13.47;100.00;96057.03;5009679;28;20033;-61
2022/09/04 06:29:45;;;;;;;2.78;2.58;;;;;;;13.52;100.00;96059.25;5009320;28;20026;-61
2022/09/04 06:32:28;;;;;;;2.10;2.00;;;;;;;13.54;100.00;96065.22;5009160;28;20405;-62
2022/09/04 06:35:06;;;;;;;2.63;2.42;;;;;;;13.49;100.00;96052.44;5010139;28;20022;-61
2022/09/04 06:37:31;;;;;;;2.17;2.08;;;;;;;13.45;100.00;96054.56;5012855;28;20030;-61
2022/09/04 06:40:00;;;;;;;3.00;2.45;;;;;;;13.49;100.00;96062.19;5012751;28;20047;-61
2022/09/04 06:42:43;;;;;;;3.03;2.00;;;;;;;13.51;100.00;96061.06;5013286;28;20029;-60
2022/09/04 06:45:40;;;;;;;4.45;2.55;;;;;;;13.74;100.00;96065.91;5013510;28;20018;-61
2022/09/04 06:48:30;;;;;;;2.10;2.00;;;;;;;14.24;100.00;96056.47;5012812;28;20755;-61
2022/09/04 06:51:14;;;;;;;1.98;1.88;;;;;;;14.75;100.00;96055.81;5014263;28;20116;-61
2022/09/04 06:53:52;;;;;;;2.08;1.98;;;;;;;15.31;100.00;96053.50;5031745;28;20499;-61
2022/09/04 06:57:00;;;;;;;2.15;2.03;;;;;;;15.77;100.00;96052.22;5020073;28;20029;-61
2022/09/04 06:59:53;;;;;;;4.70;1.98;;;;;;;16.31;100.00;96061.47;5012712;28;20052;-61
2022/09/04 07:02:33;;;;;;;4.70;1.42;;;;;;;16.75;100.00;96055.72;5012878;28;20034;-59
2022/09/04 07:05:30;;;;;;;3.65;1.60;;;;;;;16.96;99.90;96056.16;5025571;28;20036;-61
2022/09/04 07:08:23;;;;;;;3.13;1.48;;;;;;;17.29;98.35;96046.19;5025284;28;20061;-58
2022/09/04 07:11:04;;;;;;;2.03;1.80;;;;;;;17.45;95.03;96045.25;5016642;28;20080;-61
2022/09/04 07:13:48;;;;;;;7.47;2.00;;;;;;;17.57;96.87;96052.81;5012351;28;20137;-59
2022/09/04 07:16:44;;;;;;;1.80;1.45;;;;;;;17.98;95.84;96052.50;5017069;28;20025;-59
2022/09/04 07:19:15;;;;;;;;;;;;;;;18.40;90.79;96053.00;5028555;28;20037;-59
2022/09/04 07:22:10;;;;;;;2.70;1.67;;;;;;;18.67;88.81;96052.53;5024402;28;19910;-59
2022/09/04 07:24:50;;;;;;;1.35;1.35;;;;;;;18.86;86.61;96046.63;5028354;28;20056;-59
2022/09/04 07:27:35;;;;;;;1.48;1.38;;;;;;;19.12;85.59;96058.72;5021696;28;20037;-60
2022/09/04 07:30:09;;;;;;;1.60;1.50;;;;;;;19.24;84.88;96060.88;5026797;28;20029;-59
2022/09/04 07:32:34;;;;;;;5.07;1.90;;;;;;;19.30;83.98;96049.44;5024770;28;20043;-58
2022/09/04 07:35:25;;;;;;;3.15;1.42;;;;;;;18.88;86.48;96052.59;5025468;28;20104;-60
2022/09/04 07:38:16;;;;;;;4.25;1.63;;;;;;;18.55;87.86;96054.81;5023579;28;20469;-59
2022/09/04 07:40:49;;;;;;;1.33;1.23;;;;;;;18.71;86.67;96056.50;5015645;28;20513;-59
2022/09/04 07:43:28;;;;;;;1.20;1.20;;;;;;;18.80;86.59;96059.91;5022515;28;20029;-59
2022/09/04 07:46:28;;;;;;;3.22;1.70;;;;;;;18.80;85.57;96058.06;5028754;28;20025;-59
2022/09/04 07:49:21;;;;;;;1.95;1.20;;;;;;;18.67;88.17;96065.84;5020220;28;20077;-59
2022/09/04 07:52:13;;;;;;;3.30;1.33;;;;;;;18.85;87.34;96060.19;5028274;28;20021;-59
2022/09/04 07:54:41;;;;;;;3.15;1.40;;;;;;;18.83;85.60;96067.53;5022907;28;20040;-59
2022/09/04 07:57:31;;;;;;;1.67;1.52;;;;;;;18.82;85.98;96073.88;5027231;28;20041;-58
2022/09/04 08:00:12;;;;;;;1.40;1.30;;;;;;;18.76;84.10;96076.25;5026434;28;20022;-58
2022/09/04 08:03:02;;;;;;;1.33;1.30;;;;;;;18.93;85.19;96073.41;5009540;28;20079;-59
2022/09/04 08:05:40;;;;;;;3.38;1.20;;;;;;;19.32;83.51;96077.63;5002008;28;20404;-58
2022/09/04 08:08:09;;;;;;;1.40;1.30;;;;;;;19.64;83.19;96080.00;5024582;28;20026;-59
2022/09/04 08:10:59;;;;;;;1.60;1.50;;;;;;;20.13;80.81;96082.94;5022940;28;20034;-59
2022/09/04 08:13:28;;;;;;;5.30;1.65;;;;;;;20.28;77.38;96077.50;5018826;28;20489;-59
2022/09/04 08:16:38;;;;;;;1.42;1.30;;;;;;;20.31;77.86;96082.47;5016298;28;20117;-59
2022/09/04 08:19:25;;;;;;;5.38;1.70;;;;;;;20.06;79.86;96087.41;4977645;28;20046;-58
2022/09/04 08:21:53;;;;;;;2.60;1.35;;;;;;;20.07;81.49;96091.75;5011394;28;20034;-59
2022/09/04 08:24:44;;;;;;;1.60;1.48;;;;;;;20.10;80.24;96088.69;5016135;28;20034;-59
2022/09/04 08:27:32;;;;;;;8.63;1.70;;;;;;;20.55;78.21;96096.41;5019461;28;20505;-58
2022/09/04 08:29:58;;;;;;;4.43;1.50;;;;;;;20.55;76.39;96099.94;5007205;28;20033;-58
2022/09/04 08:32:41;;;;;;;3.03;1.60;;;;;;;20.61;74.89;96107.16;5020649;28;20033;-58
2022/09/04 08:35:25;;;;;;;1.70;1.60;;;;;;;20.75;72.71;96107.28;5022693;28;20261;-59
2022/09/04 08:38:13;;;;;;;5.03;1.45;;;;;;;20.51;73.58;96101.34;5027790;28;20414;-58
2022/09/04 08:41:16;;;;;;;1.58;1.48;;;;;;;20.75;75.63;96110.75;5024012;28;20064;-59
2022/09/04 08:44:11;;;;;;;1.40;1.40;;;;;;;20.52;72.60;96111.03;5023543;28;20038;-59
2022/09/04 08:47:00;;;;;;;1.73;1.63;;;;;;;20.63;72.35;96115.00;5021399;28;20062;-59
2022/09/04 08:49:37;;;;;;;1.90;1.80;;;;;;;20.54;72.11;96106.31;5022575;28;20026;-59
2022/09/04 08:52:30;;;;;;;2.40;1.77;;;;;;;20.61;73.39;96112.53;5017011;28;20076;-59
2022/09/04 08:55:16;;;;;;;1.92;1.83;;;;;;;20.86;75.09;96112.09;5021095;28;20432;-59
2022/09/04 08:57:53;;;;;;;4.53;1.63;;;;;;;21.11;71.34;96119.66;5012672;28;20042;-59
2022/09/04 09:00:27;;;;;;;1.90;1.80;;;;;;;21.31;69.10;96118.91;5023943;28;20436;-58
2022/09/04 09:03:28;;;;;;;1.50;1.50;;;;;;;21.05;69.21;96112.41;5026598;28;20032;-59
2022/09/04 09:06:18;;;;;;;1.80;1.48;;;;;;;20.79;73.75;96113.06;5021291;28;20033;-59
2022/09/04 09:08:55;;;;;;;2.17;1.50;;;;;;;20.85;70.31;96105.09;5024437;28;20625;-59
2022/09/04 09:11:58;;;;;;;1.70;1.60;;;;;;;20.46;69.67;96111.81;5022499;28;20101;-59
2022/09/04 09:14:39;;;;;;;1.83;1.70;;;;;;;20.31;73.89;96112.72;5014291;28;20049;-59
2022/09/04 09:17:14;;;;;;;3.00;1.80;;;;;;;20.41;73.08;96100.84;5025539;28;20031;-58
2022/09/04 09:19:43;;;;;;;1.58;1.48;;;;;;;20.12;74.68;96108.03;5010743;28;20579;-59
2022/09/04 09:22:36;;;;;;;2.40;2.13;;;;;;;20.26;73.33;96101.78;5016664;28;20036;-59
2022/09/04 09:25:19;;;;;;;3.55;1.52;;;;;;;20.29;75.12;96101.41;5017220;28;20121;-59
2022/09/04 09:28:22;;;;;;;2.15;1.80;;;;;;;20.40;73.42;96104.53;5015883;28;20029;-59
2022/09/04 09:31:06;;;;;;;2.00;1.80;;;;;;;20.11;75.16;96101.03;5020356;28;20025;-59
2022/09/04 09:34:09;;;;;;;1.73;1.63;;;;;;;20.41;74.56;96104.38;5022288;28;20108;-58
2022/09/04 09:37:01;;;;;;;1.77;1.67;;;;;;;20.57;73.75;96100.56;5001434;28;20045;-60
2022/09/04 09:39:29;;;;;;;1.63;1.52;;;;;;;20.44;72.82;96100.47;5018615;28;20033;-60
2022/09/04 09:42:34;;;;;;;1.80;1.70;;;;;;;20.37;72.61;96091.56;5017861;28;20029;-60
2022/09/04 09:45:21;;;;;;;1.83;1.70;;;;;;;20.58;72.53;96088.84;4991142;28;20041;-60
2022/09/04 09:47:55;;;;;;;1.63;1.52;;;;;;;20.55;72.70;96088.41;5016933;28;20054;-59
2022/09/04 09:50:45;;;;;;;2.47;2.08;;;;;;;20.75;72.98;96085.88;5016753;28;20061;-60
2022/09/04 09:53:44;;;;;;;1.75;1.65;;;;;;;21.00;71.78;96088.94;5018123;28;20125;-59
2022/09/04 09:56:35;;;;;;;1.77;1.63;;;;;;;21.21;69.31;96100.53;5023545;28;20059;-60
2022/09/04 09:59:04;;;;;;;1.77;1.55;;;;;;;21.18;67.18;96091.06;5025562;28;20057;-60
2022/09/04 10:01:42;;;;;;;2.55;1.75;;;;;;;21.35;68.69;96089.88;5015533;28;20481;-59
2022/09/04 10:04:20;;;;;;;1.50;1.50;;;;;;;21.60;66.59;96090.19;5020781;28;20030;-60
2022/09/04 10:07:06;;;;;;;1.40;1.23;;;;;;;22.05;62.45;96089.66;5015793;28;20072;-60
2022/09/04 10:09:50;;;;;;;1.50;1.40;;;;;;;21.83;66.61;96091.72;5020029;28;20021;-60
2022/09/04 10:12:40;;;;;;;1.65;1.38;;;;;;;21.94;66.45;96088.41;5026200;28;20053;-60
2022/09/04 10:15:30;;;;;;;4.80;1.70;;;;;;;22.01;64.87;96083.06;5026750;28;20037;-60
2022/09/04 10:18:33;;;;;;;1.63;1.52;;;;;;;21.77;66.81;96087.13;5021468;28;20049;-60
2022/09/04 10:21:27;;;;;;;1.42;1.33;;;;;;;22.18;61.89;96078.94;5025504;28;20033;-60
2022/09/04 10:24:04;;;;;;;1.40;1.40;;;;;;;22.07;63.55;96092.97;5025545;28;20447;-60
2022/09/04 10:26:48;;;;;;;1.95;1.48;;;;;;;22.25;64.05;96084.31;5026664;28;20136;-61
2022/09/04 10:29:26;;;;;;;2.75;1.73;;;;;;;22.62;61.01;96089.28;5024733;28;20457;-60
2022/09/04 10:32:15;;;;;;;1.58;1.48;;;;;;;22.59;64.43;96079.78;5019705;28;20029;-61
2022/09/04 10:35:14;;;;;;;1.80;1.70;;;;;;;23.01;61.97;96084.88;5029361;28;20048;-61
2022/09/04 10:38:03;;;;;;;1.45;1.35;;;;;;;22.99;62.69;96076.19;5021942;28;20033;-60
2022/09/04 10:40:46;;;;;;;4.03;1.67;;;;;;;22.98;62.56;96079.06;5022483;28;20115;-61
2022/09/04 10:43:30;;;;;;;1.55;1.42;;;;;;;23.11;60.58;96081.72;5019498;28;20100;-60
2022/09/04 10:46:10;;;;;;;4.72;1.52;;;;;;;23.15;60.79;96077.59;5021323;28;20045;-61
2022/09/04 10:49:05;;;;;;;1.65;1.35;;;;;;;23.07;57.84;96077.78;5017465;28;20056;-61
2022/09/04 10:52:13;;;;;;;1.50;1.40;;;;;;;23.17;60.00;96078.19;5020559;28;20029;-60
2022/09/04 10:54:57;;;;;;;4.47;1.20;;;;;;;23.38;58.38;96081.66;5020648;28;20026;-60
2022/09/04 10:57:36;;;;;;;3.38;1.50;;;;;;;23.80;54.31;96077.72;5019195;28;20568;-61
2022/09/04 11:00:10;;;;;;;1.33;1.23;;;;;;;24.00;55.43;96082.94;5017705;28;20045;-61
2022/09/04 11:02:51;;;;;;;1.50;1.17;;;;;;;24.38;53.35;96074.00;5022597;28;20025;-61
2022/09/04 11:05:28;;;;;;;1.25;1.23;;;;;;;24.64;52.63;96072.09;5016018;28;20045;-61
2022/09/04 11:08:05;;;;;;;1.23;1.20;;;;;;;24.67;54.79;96062.78;5016264;28;20116;-61
2022/09/04 11:10:37;;;;;;;1.30;1.20;;;;;;;25.14;49.47;96064.97;5017460;28;20109;-61
2022/09/04 11:13:27;;;;;;;1.10;1.10;;;;;;;25.14;50.52;96068.50;5018948;28;20499;-60
2022/09/04 11:16:01;;;;;;;1.15;1.02;;;;;;;25.64;46.70;96072.03;5021679;28;20042;-59
2022/09/04 11:18:48;;;;;;;1.25;1.15;;;;;;;25.63;45.38;96065.00;5019490;28;20030;-59
2022/09/04 11:21:35;;;;;;;0.98;0.98;;;;;;;25.94;46.88;96065.78;5019781;28;20036;-59
2022/09/04 11:24:14;;;;;;;1.25;1.25;;;;;;;26.39;44.55;96064.50;5018529;28;20034;-60
2022/09/04 11:27:14;;;;;;;1.60;1.23;;;;;;;25.89;46.21;96065.66;5018315;28;20213;-59
2022/09/04 11:29:53;;;;;;;2.00;1.15;;;;;;;25.87;48.48;96062.38;5022306;28;20014;-59
2022/09/04 11:32:24;;;;;;;1.58;1.40;;;;;;;26.39;47.85;96058.25;5017147;28;20053;-59
2022/09/04 11:35:31;;;;;;;2.17;1.10;;;;;;;26.56;45.98;96063.81;5020827;28;20034;-59
2022/09/04 11:38:02;;;;;;;1.52;1.30;;;;;;;26.62;47.21;96060.16;5019807;28;20029;-59
2022/09/04 11:40:42;;;;;;;1.30;1.20;;;;;;;26.69;46.49;96068.13;5019722;28;20022;-59
2022/09/04 11:43:19;;;;;;;4.85;1.13;;;;;;;26.83;45.90;96060.59;5020509;28;20024;-59
2022/09/04 11:46:16;;;;;;;1.30;1.20;;;;;;;26.52;47.36;96058.03;5021119;28;20028;-58
2022/09/04 11:49:08;;;;;;;1.50;1.15;;;;;;;26.83;47.24;96063.31;5013201;28;20407;-57
2022/09/04 11:51:42;;;;;;;2.22;1.40;;;;;;;26.94;44.72;96057.09;5017861;28;20114;-58
2022/09/04 11:54:17;;;;;;;0.98;0.98;;;;;;;27.17;42.95;96050.81;5017080;28;20029;-59
2022/09/04 11:57:06;;;;;;;1.00;1.00;;;;;;;27.33;43.20;96045.72;5016398;28;20073;-58
2022/09/04 11:59:52;;;;;;;6.68;1.40;;;;;;;27.19;46.07;96047.06;5014827;28;20057;-58
2022/09/04 12:02:26;;;;;;;2.95;1.08;;;;;;;27.24;43.81;96047.16;4996926;28;20412;-57
2022/09/04 12:05:38;;;;;;;1.23;1.13;;;;;;;26.38;45.54;96045.81;4999648;28;20565;-58
2022/09/04 12:08:25;;;;;;;1.15;1.00;;;;;;;26.71;45.27;96041.72;5014379;28;20117;-58
2022/09/04 12:11:19;;;;;;;51.05;45.97;;;;;;;27.28;42.51;96042.91;5023427;28;20087;-58
2022/09/04 12:14:14;;;;;;;2.50;2.30;;;;;;;27.92;40.39;96033.84;5017304;28;20037;-58
2022/09/04 12:17:09;;;;;;;10.02;8.13;;;;;;;27.90;41.60;96025.16;5016942;28;20349;-58
2022/09/04 12:19:38;;;;;;;2.33;2.10;;;;;;;27.93;40.86;96026.56;5017250;28;20026;-58
2022/09/04 12:22:03;;;;;;;6.38;5.78;;;;;;;28.10;39.42;96027.38;5015967;28;20021;-58
2022/09/04 12:25:04;;;;;;;1.43;1.30;;;;;;;28.24;41.39;96032.47;5016301;28;20102;-58
2022/09/04 12:28:08;;;;;;;1.00;0.90;;;;;;;28.35;39.42;96034.28;5021561;28;20292;-60
2022/09/04 12:30:54;;;;;;;1.85;1.10;;;;;;;27.84;41.73;96028.84;5023632;28;20622;-60
2022/09/04 12:33:38;;;;;;;1.63;1.10;;;;;;;28.13;43.07;96034.19;5000887;28;20033;-60
2022/09/04 12:36:09;;;;;;;0.93;0.93;;;;;;;28.07;43.70;96029.75;5021065;28;20026;-60
2022/09/04 12:38:54;;;;;;;1.35;1.25;;;;;;;28.58;43.46;96027.03;5004896;28;20455;-60
2022/09/04 12:41:38;;;;;;;;;;;;;;;28.38;44.12;96025.69;5018142;28;20032;-60
2022/09/04 12:44:20;;;;;;;1.05;1.05;;;;;;;28.71;42.96;96028.56;5021869;28;19917;-60
2022/09/04 12:47:02;;;;;;;2.50;1.15;;;;;;;28.54;43.22;96021.31;5009905;28;20172;-60